Pagina principale
METAR-TAF:

METAR-TAF

Aeroporti :

Aeroporto Internazionale Sir Seretse Khama

Gaborone, Botswana

latitudine: 24-13S, longitudine: 025-55E, altezza: 1005 m

Osservazione

Il bollettino è stato emesso 47 minuti fa, alle 23:00 UTC
Vento 4 kt da sud-ovest
Temperature 7°C
Umidità 61%
Pressione 1028 hPa
Visibilità 10 km o più
nessuna nube inferiore a 1500 m e nessun cumulonembo

METAR: FBSK 162300Z 23004KT CAVOK 07/00 Q1028 NOSIG

Ora: 01:47 (23:47 UTC)

Previsione

Il bollettino è stato emesso 2 ore e 47 minuti fa, alle 21:00 UTC
Previsione valida dal 17 alle 00 UTC al 18 alle 06 UTC
Vento 8 kt da ovest/sud-ovest
Visibilità 10 km o più
nessuna nube inferiore a 1500 m e nessun cumulonembo

TAF: FBSK 162100Z 1700/1806 24008KT CAVOK

Osservazioni e previsioni meteorologiche di più di 4000 aeroporti (messaggi METAR e TAF).

Le stazioni disponibili sono rappresentate dai dischi gialli e rossi sulla carta.

Puntare il mouse per vedere il nome della stazione.

Clicca sopra per visualizzare le osservazioni e previsioni meteorologiche.

Per cambiare la mappa : fare clic sui pulsanti verdi con una croce nera per ingrandire, il pulsante verde con un trattino per diminuire, o sulla freccia verde per le mappe adiacenti.


METAR-TAF: